Time;durP1;ratioP1;P1;durP2;ratioP2;P2;SDS_P1;SDS_P2;PMS_P1;PMS_P2;Temp;Humidity;BMP_temperature;BMP_pressure;BME280_temperature;BME280_humidity;BME280_pressure;Samples;Min_cycle;Max_cycle;Signal;HPM_P1;HPM_P2
2022/04/15 00:01:22;;;;;;;;;7.33;6.33;;;;;33.71;22.44;101889.22;5015274;28;45325;-86
2022/04/15 00:03:48;;;;;;;;;9.00;9.00;;;;;33.42;22.77;101860.72;5014789;28;48192;-86
2022/04/15 00:06:13;;;;;;;;;8.33;7.00;;;;;33.73;22.61;101912.06;5016370;28;45773;-86
2022/04/15 00:08:39;;;;;;;;;7.00;7.00;;;;;33.42;22.83;101867.13;5016583;28;45409;-86
2022/04/15 00:11:04;;;;;;;;;7.00;7.00;;;;;33.43;22.85;101848.75;5016025;28;45522;-86
2022/04/15 00:13:32;;;;;;;;;8.00;6.33;;;;;33.43;22.79;101854.25;5014766;28;46917;-86
2022/04/15 00:15:58;;;;;;;;;8.00;6.67;;;;;33.51;22.82;101871.19;5016323;28;45342;-86
2022/04/15 00:18:24;;;;;;;;;7.33;7.00;;;;;33.64;22.52;101907.09;5015216;28;45442;-87
2022/04/15 00:20:52;;;;;;;;;9.00;8.00;;;;;33.36;22.55;101870.22;5016356;28;45620;-87
2022/04/15 00:23:18;;;;;;;;;7.67;6.33;;;;;33.24;22.68;101868.25;5016215;28;45338;-87
2022/04/15 00:25:43;;;;;;;;;7.67;6.33;;;;;33.53;22.72;101898.59;5014308;28;45282;-87
2022/04/15 00:28:09;;;;;;;;;8.33;8.33;;;;;33.11;22.80;101833.19;5014281;28;45467;-87
2022/04/15 00:30:34;;;;;;;;;8.00;8.00;;;;;33.33;22.79;101868.59;5014737;28;45353;-87
2022/04/15 00:32:59;;;;;;;;;8.67;8.67;;;;;33.50;22.55;101894.16;5014624;28;48354;-86
2022/04/15 00:35:25;;;;;;;;;10.33;8.00;;;;;33.27;22.11;101855.19;5014709;28;45688;-87
2022/04/15 00:37:50;;;;;;;;;7.33;7.33;;;;;33.21;22.46;101844.53;5015940;28;45652;-86
2022/04/15 00:40:16;;;;;;;;;7.33;7.00;;;;;33.26;22.48;101847.91;5014712;28;45345;-86
2022/04/15 00:42:41;;;;;;;;;7.00;7.00;;;;;33.40;22.50;101871.81;5014533;28;47261;-87
2022/04/15 00:45:09;;;;;;;;;7.00;5.00;;;;;33.45;22.30;101866.94;5014482;28;45490;-87
2022/04/15 00:47:57;;;;;;;;;6.67;6.00;;;;;33.64;22.47;101902.50;5016136;28;45229;-87
2022/04/15 00:50:34;;;;;;;;;7.33;7.00;;;;;33.58;22.74;101904.72;5015862;28;45434;-87
2022/04/15 00:53:01;;;;;;;;;6.67;6.67;;;;;33.27;22.57;101866.19;5014546;28;47268;-86
2022/04/15 00:55:27;;;;;;;;;7.00;7.00;;;;;33.08;22.54;101851.72;5014245;28;45491;-87
2022/04/15 00:57:57;;;;;;;;;6.00;6.00;;;;;33.38;22.40;101912.31;5015429;28;45835;-86
2022/04/15 01:00:25;;;;;;;;;7.33;7.00;;;;;33.12;22.98;101861.56;5014541;28;45292;-87
2022/04/15 01:02:51;;;;;;;;;7.00;6.67;;;;;33.24;22.95;101887.50;5015508;28;45602;-87
2022/04/15 01:05:17;;;;;;;;;8.33;7.33;;;;;32.87;23.30;101852.00;5014766;28;45410;-88
2022/04/15 01:07:47;;;;;;;;;8.33;7.00;;;;;33.23;23.14;101907.72;5006865;28;45528;-87
2022/04/15 01:10:14;;;;;;;;;7.00;7.00;;;;;33.02;22.92;101865.84;4994509;28;45481;-87
2022/04/15 01:12:43;;;;;;;;;8.00;7.00;;;;;33.23;22.99;101877.47;4995600;28;45412;-86
2022/04/15 01:15:13;;;;;;;;;9.00;7.00;;;;;33.50;22.72;101910.69;4994091;28;45361;-86
2022/04/15 01:17:39;;;;;;;;;7.00;6.00;;;;;33.40;22.56;101892.97;4995751;28;45281;-87
2022/04/15 01:20:07;;;;;;;;;8.00;8.00;;;;;33.24;22.73;101865.50;4995313;28;45594;-86
2022/04/15 01:23:02;;;;;;;;;6.00;6.00;;;;;33.45;22.99;101908.22;4994121;28;47358;-87
2022/04/15 01:25:27;;;;;;;;;9.67;7.33;;;;;33.44;22.58;101913.81;4992348;28;45741;-87
2022/04/15 01:27:53;;;;;;;;;8.00;7.00;;;;;33.17;22.56;101867.69;4994181;28;45681;-87
2022/04/15 01:30:20;;;;;;;;;9.00;9.00;;;;;33.26;22.51;101896.53;4995590;28;45677;-88
2022/04/15 01:32:47;;;;;;;;;8.33;8.33;;;;;33.14;22.58;101863.25;4994286;28;48489;-87
2022/04/15 01:35:14;;;;;;;;;7.00;7.00;;;;;33.35;23.22;101912.50;5008019;28;45211;-86
2022/04/15 01:37:40;;;;;;;;;7.00;5.67;;;;;33.20;23.05;101896.88;5013902;28;45407;-86
2022/04/15 01:40:07;;;;;;;;;9.67;8.00;;;;;33.04;23.14;101862.03;5014781;28;45559;-87
2022/04/15 01:42:34;;;;;;;;;5.00;5.00;;;;;32.96;23.28;101867.94;5017451;28;47238;-87
2022/04/15 01:45:00;;;;;;;;;9.33;9.33;;;;;33.32;22.98;101919.06;5017286;28;45411;-87
2022/04/15 01:47:26;;;;;;;;;8.00;8.00;;;;;33.28;22.78;101913.84;5017550;28;45327;-87
2022/04/15 01:49:52;;;;;;;;;8.00;5.33;;;;;33.12;23.16;101906.47;5018267;28;45325;-87
2022/04/15 01:52:17;;;;;;;;;7.33;7.33;;;;;32.84;23.02;101865.91;5017914;28;45419;-87
2022/04/15 01:54:42;;;;;;;;;8.00;8.00;;;;;32.73;23.10;101839.06;5017284;28;45316;-87
2022/04/15 01:57:08;;;;;;;;;6.67;6.67;;;;;33.12;23.01;101922.94;5017117;28;45254;-86
2022/04/15 01:59:33;;;;;;;;;9.50;8.00;;;;;33.06;23.23;101906.78;5017482;28;45509;-87
2022/04/15 02:01:59;;;;;;;;;8.67;8.67;;;;;32.98;23.17;101884.34;5017000;28;47207;-87
2022/04/15 02:04:26;;;;;;;;;7.00;7.00;;;;;32.92;22.66;101880.09;5016853;28;45324;-87
2022/04/15 02:06:52;;;;;;;;;6.67;6.67;;;;;33.10;23.06;101918.50;5016681;28;45486;-87
2022/04/15 02:09:17;;;;;;;;;9.00;9.00;;;;;32.82;23.40;101862.38;5016701;28;45301;-87
2022/04/15 02:11:43;;;;;;;;;6.67;6.67;;;;;32.94;23.43;101888.25;5016865;28;46897;-86
2022/04/15 02:14:08;;;;;;;;;8.00;8.00;;;;;32.67;23.51;101845.78;5017994;28;45437;-87
2022/04/15 02:16:34;;;;;;;;;6.67;6.67;;;;;33.03;23.54;101914.34;5016901;28;45577;-87
2022/04/15 02:19:00;;;;;;;;;6.00;6.00;;;;;32.93;22.96;101894.75;5018500;28;45399;-87
2022/04/15 02:21:25;;;;;;;;;9.00;9.00;;;;;33.06;22.98;101919.66;5016072;28;46498;-87
2022/04/15 02:23:51;;;;;;;;;6.00;6.00;;;;;32.64;23.45;101845.03;5016556;28;45388;-85
2022/04/15 02:26:16;;;;;;;;;7.33;7.33;;;;;32.71;23.62;101882.22;5017712;28;45534;-86
2022/04/15 02:28:41;;;;;;;;;8.00;8.00;;;;;32.87;23.19;101911.56;5016516;28;45310;-86
2022/04/15 02:31:07;;;;;;;;;8.00;8.00;;;;;32.40;23.33;101814.38;5016327;28;47180;-86
2022/04/15 02:33:32;;;;;;;;;7.33;7.33;;;;;32.65;22.98;101863.31;5018024;28;45296;-86
2022/04/15 02:35:58;;;;;;;;;8.00;8.00;;;;;32.64;23.67;101867.03;5016256;28;45421;-85
2022/04/15 02:38:24;;;;;;;;;8.00;6.67;;;;;32.85;23.66;101924.53;5017694;28;45455;-85
2022/04/15 02:40:49;;;;;;;;;7.00;7.00;;;;;32.48;23.61;101865.16;5017732;28;46513;-86
2022/04/15 02:43:15;;;;;;;;;6.67;6.67;;;;;32.77;23.26;101920.38;5017593;28;45493;-86
2022/04/15 02:45:41;;;;;;;;;7.00;7.00;;;;;32.40;23.22;101861.06;5016516;28;45447;-87
2022/04/15 02:48:07;;;;;;;;;9.00;8.00;;;;;32.61;23.26;101897.44;5016340;28;45675;-87
2022/04/15 02:50:32;;;;;;;;;9.67;8.33;;;;;32.58;23.68;101889.38;5016299;28;47939;-87
2022/04/15 02:52:59;;;;;;;;;11.00;9.00;;;;;32.58;23.54;101893.00;5015901;28;45562;-88
2022/04/15 02:55:25;;;;;;;;;8.33;7.33;;;;;32.35;23.26;101866.81;5016605;28;45443;-87
2022/04/15 02:57:52;;;;;;;;;8.00;6.67;;;;;32.24;23.22;101852.81;5017374;28;45241;-86
2022/04/15 03:00:18;;;;;;;;;10.00;8.67;;;;;32.56;23.31;101902.28;5016011;28;47984;-87
2022/04/15 03:02:43;;;;;;;;;9.33;8.00;;;;;32.60;23.20;101899.31;5016156;28;45768;-86
2022/04/15 03:05:11;;;;;;;;;8.00;8.00;;;;;32.29;23.28;101831.44;5017019;28;45339;-86
2022/04/15 03:07:38;;;;;;;;;4.00;4.00;;;;;32.30;23.73;101824.97;5016037;28;45400;-87
2022/04/15 03:10:05;;;;;;;;;8.00;7.00;;;;;32.64;23.14;101869.78;5017040;28;45917;-86
2022/04/15 03:12:38;;;;;;;;;7.67;7.67;;;;;32.79;23.16;101888.16;5017266;28;45384;-86
2022/04/15 03:15:05;;;;;;;;;9.00;8.00;;;;;32.58;22.74;101862.78;5032206;28;45419;-86
2022/04/15 03:17:34;;;;;;;;;9.00;9.00;;;;;32.49;23.22;101858.69;5017213;28;45348;-87
2022/04/15 03:20:02;;;;;;;;;9.67;8.67;;;;;32.85;22.81;101921.78;5015830;28;47378;-87
2022/04/15 03:22:38;;;;;;;;;8.00;8.00;;;;;32.42;22.72;101860.00;5032325;28;45374;-87
2022/04/15 03:25:06;;;;;;;;;7.67;7.00;;;;;32.52;23.00;101881.44;5015691;28;45368;-86
2022/04/15 03:27:32;;;;;;;;;9.00;8.00;;;;;32.72;22.98;101935.34;5015905;28;45516;-86
2022/04/15 03:29:57;;;;;;;;;6.00;6.00;;;;;32.47;23.39;101889.97;5018141;28;45386;-86
2022/04/15 03:32:22;;;;;;;;;8.00;8.00;;;;;32.62;23.20;101927.56;5015632;28;45462;-86
2022/04/15 03:34:48;;;;;;;;;8.00;7.67;;;;;32.20;23.44;101867.66;5015620;28;45362;-86
2022/04/15 03:37:13;;;;;;;;;8.33;8.33;;;;;32.25;23.50;101909.47;5015489;28;45191;-86
2022/04/15 03:39:38;;;;;;;;;7.67;7.67;;;;;31.95;23.08;101864.34;5015352;28;47438;-86
2022/04/15 03:42:04;;;;;;;;;9.00;9.00;;;;;31.96;23.62;101859.75;5016727;28;45312;-86
2022/04/15 03:44:29;;;;;;;;;8.67;7.67;;;;;32.18;23.22;101902.53;5015559;28;45498;-86
2022/04/15 03:46:55;;;;;;;;;8.00;7.00;;;;;31.94;23.39;101847.97;5015576;28;45324;-86
2022/04/15 03:49:20;;;;;;;;;12.00;9.00;;;;;31.84;23.62;101849.44;5014715;28;46030;-85
2022/04/15 03:51:45;;;;;;;;;9.33;9.33;;;;;32.23;23.16;101914.16;5015175;28;45543;-86
2022/04/15 03:54:11;;;;;;;;;9.33;7.67;;;;;31.96;23.56;101868.00;5015159;28;45444;-86
2022/04/15 03:56:37;;;;;;;;;7.33;7.33;;;;;31.99;23.28;101892.53;5015544;28;45458;-86
2022/04/15 03:59:03;;;;;;;;;9.00;7.67;;;;;32.07;23.62;101906.72;5016656;28;45447;-86
2022/04/15 04:01:29;;;;;;;;;7.33;7.33;;;;;32.00;23.93;101905.28;5016591;28;45466;-86
2022/04/15 04:03:54;;;;;;;;;9.00;6.00;;;;;32.00;23.89;101919.00;5013853;28;45353;-86
2022/04/15 04:06:22;;;;;;;;;7.00;7.00;;;;;31.83;23.90;101891.56;5014970;28;45389;-86
2022/04/15 04:08:50;;;;;;;;;8.00;8.00;;;;;31.58;23.66;101870.91;5014975;28;47103;-86
2022/04/15 04:11:17;;;;;;;;;9.00;7.33;;;;;32.03;23.81;101940.81;5014813;28;45504;-85
2022/04/15 04:13:43;;;;;;;;;8.67;7.67;;;;;31.80;24.13;101914.56;5016361;28;45438;-86
2022/04/15 04:16:09;;;;;;;;;7.33;7.33;;;;;31.92;24.02;101935.88;5014623;28;45411;-86
2022/04/15 04:18:34;;;;;;;;;9.00;7.00;;;;;31.52;24.05;101888.53;5014454;28;47316;-86
2022/04/15 04:20:59;;;;;;;;;9.00;9.00;;;;;31.59;24.21;101911.06;5014716;28;45447;-86
2022/04/15 04:23:24;;;;;;;;;7.33;6.00;;;;;31.86;24.03;101951.78;5014782;28;45858;-86
2022/04/15 04:25:50;;;;;;;;;7.33;7.33;;;;;31.74;23.55;101929.47;5014755;28;45500;-85
2022/04/15 04:28:15;;;;;;;;;7.00;7.00;;;;;31.72;23.85;101919.59;5014658;28;48441;-87
2022/04/15 04:30:40;;;;;;;;;10.00;10.00;;;;;31.48;23.72;101890.53;5014462;28;45412;-87
2022/04/15 04:33:06;;;;;;;;;9.33;9.33;;;;;31.51;23.55;101903.22;5014898;28;45267;-88
2022/04/15 04:35:31;;;;;;;;;11.33;9.67;;;;;31.46;23.73;101902.56;5015052;28;45175;-86
2022/04/15 04:37:57;;;;;;;;;9.00;9.00;;;;;31.58;23.70;101943.09;5014448;28;48493;-86
2022/04/15 04:40:22;;;;;;;;;11.00;9.33;;;;;31.25;24.08;101872.53;5014304;28;45486;-85
2022/04/15 04:42:51;;;;;;;;;13.00;11.00;;;;;31.75;23.84;101961.44;5014560;28;45620;-85
2022/04/15 04:45:17;;;;;;;;;13.00;11.00;;;;;31.41;23.80;101902.78;5003294;28;45414;-85
2022/04/15 04:47:45;;;;;;;;;12.00;12.00;;;;;31.55;24.13;101931.38;4994391;28;47037;-84
2022/04/15 04:50:11;;;;;;;;;13.33;10.67;;;;;31.50;24.04;101926.13;4996205;28;45396;-88
2022/04/15 04:52:38;;;;;;;;;10.00;10.00;;;;;31.45;24.18;101923.63;4995401;28;45405;-88
2022/04/15 04:55:04;;;;;;;;;11.00;11.00;;;;;31.61;23.97;101950.31;4996935;28;45535;-88
2022/04/15 04:57:30;;;;;;;;;16.00;14.00;;;;;31.36;23.71;101926.81;4994717;28;47142;-87
2022/04/15 04:59:56;;;;;;;;;11.00;10.00;;;;;31.29;24.14;101923.50;4995729;28;45238;-89
2022/04/15 05:02:22;;;;;;;;;11.67;11.67;;;;;31.47;24.00;101931.75;5011458;28;45482;-90
2022/04/15 05:04:48;;;;;;;;;12.00;11.00;;;;;31.40;24.25;101938.53;5015219;28;45631;-90
2022/04/15 05:07:14;;;;;;;;;10.00;10.00;;;;;31.61;24.17;101964.00;5014866;28;47500;-90
2022/04/15 05:09:41;;;;;;;;;12.33;11.67;;;;;31.43;23.78;101931.03;5015247;28;45419;-93
2022/04/15 05:12:08;;;;;;;;;15.00;12.33;;;;;31.33;23.71;101918.75;5016088;28;45262;-91
2022/04/15 05:14:38;;;;;;;;;14.33;13.00;;;;;31.02;24.19;101883.75;5016039;28;45591;-89
2022/04/15 05:17:04;;;;;;;;;14.00;11.00;;;;;31.69;23.69;101991.03;5027619;28;48801;-88
2022/04/15 05:19:30;;;;;;;;;12.67;12.00;;;;;31.24;23.82;101930.19;5038843;28;45590;-91
2022/04/15 05:21:55;;;;;;;;;16.67;13.67;;;;;31.53;23.81;101968.97;5038864;28;45395;-89
2022/04/15 05:24:20;;;;;;;;;13.00;13.00;;;;;31.55;23.69;101965.19;5019708;28;45638;-84
2022/04/15 05:26:46;;;;;;;;;15.67;11.33;;;;;31.31;23.63;101915.22;5001520;28;48267;-89
2022/04/15 05:29:11;;;;;;;;;12.00;12.00;;;;;31.44;23.71;101949.25;4987488;28;46086;-87
2022/04/15 05:31:36;;;;;;;;;11.33;10.67;;;;;31.58;23.77;101970.53;4981668;28;45325;-87
2022/04/15 05:34:03;;;;;;;;;14.67;13.67;;;;;31.77;23.95;101986.06;4981204;28;45405;-87
2022/04/15 05:36:28;;;;;;;;;13.33;11.33;;;;;31.91;23.30;102001.81;4997713;28;46217;-86
2022/04/15 05:38:54;;;;;;;;;12.67;12.67;;;;;31.47;23.34;101940.00;4998434;28;45498;-84
2022/04/15 05:41:19;;;;;;;;;13.00;10.00;;;;;31.59;23.87;101949.47;4981149;28;45302;-84
2022/04/15 05:43:46;;;;;;;;;13.00;13.00;;;;;31.51;23.66;101948.97;4998588;28;45465;-88
2022/04/15 05:46:11;;;;;;;;;10.33;10.00;;;;;31.70;23.94;101984.59;4998954;28;46183;-87
2022/04/15 05:48:37;;;;;;;;;14.33;13.33;;;;;31.61;24.25;101985.97;4998328;28;45468;-86
2022/04/15 05:51:03;;;;;;;;;12.00;12.00;;;;;31.55;23.84;101989.00;4999506;28;45348;-89
2022/04/15 05:53:28;;;;;;;;;12.00;12.00;;;;;31.80;24.00;102018.81;4981100;28;45521;-86
2022/04/15 05:55:53;;;;;;;;;14.33;12.00;;;;;31.54;23.53;101946.06;4985250;28;48160;-86
2022/04/15 05:58:19;;;;;;;;;12.00;12.00;;;;;31.69;23.35;101975.50;5017952;28;45508;-84
2022/04/15 06:00:44;;;;;;;;;16.00;14.33;;;;;31.64;23.52;101967.50;5001271;28;45278;-84
2022/04/15 06:03:10;;;;;;;;;8.67;8.67;;;;;31.68;23.91;101972.81;4997511;28;45430;-83
2022/04/15 06:05:35;;;;;;;;;12.00;9.67;;;;;31.89;23.51;102018.38;4997209;28;46371;-84
2022/04/15 06:08:01;;;;;;;;;12.00;12.00;;;;;31.84;23.66;102014.09;4997335;28;45449;-84
2022/04/15 06:10:26;;;;;;;;;15.00;14.00;;;;;31.60;24.07;101975.94;4980810;28;45401;-83
2022/04/15 06:12:57;;;;;;;;;12.00;12.00;;;;;31.78;23.80;102012.53;4997634;28;45537;-83
2022/04/15 06:15:31;;;;;;;;;19.33;17.67;;;;;31.79;24.03;102006.97;4997618;28;46402;-81
2022/04/15 06:17:57;;;;;;;;;13.33;13.33;;;;;31.73;23.65;101990.84;4997433;28;45563;-82
2022/04/15 06:20:23;;;;;;;;;14.67;12.00;;;;;32.01;23.70;102027.84;4979687;28;45491;-83
2022/04/15 06:22:48;;;;;;;;;13.67;13.67;;;;;31.85;23.85;101993.91;4997248;28;45474;-83
2022/04/15 06:25:13;;;;;;;;;15.33;15.00;;;;;32.07;23.54;102033.00;4997018;28;46261;-83
2022/04/15 06:27:39;;;;;;;;;12.67;11.67;;;;;31.99;24.14;102027.03;4995691;28;45761;-82
2022/04/15 06:30:07;;;;;;;;;15.33;14.67;;;;;32.02;23.99;102018.63;4997413;28;45559;-83
2022/04/15 06:32:33;;;;;;;;;17.00;13.33;;;;;31.96;23.39;101992.38;4997313;28;45364;-83
2022/04/15 06:34:59;;;;;;;;;14.33;14.00;;;;;32.14;23.83;102018.03;4976923;28;46280;-84
2022/04/15 06:37:24;;;;;;;;;12.67;12.33;;;;;32.20;23.44;102043.38;4983809;28;45443;-85
2022/04/15 06:39:51;;;;;;;;;16.67;15.00;;;;;31.84;23.35;101972.91;4994978;28;45421;-84
2022/04/15 06:42:23;;;;;;;;;17.00;13.00;;;;;32.07;23.62;101999.19;4978679;28;45449;-84
2022/04/15 06:44:49;;;;;;;;;14.50;14.50;;;;;32.12;23.56;101997.97;5014303;28;48515;-85
2022/04/15 06:47:15;;;;;;;;;18.00;15.67;;;;;32.35;23.28;102034.34;4979387;28;46215;-84
2022/04/15 06:49:42;;;;;;;;;15.33;12.00;;;;;32.43;23.61;102062.31;4996882;28;45570;-84
2022/04/15 06:52:08;;;;;;;;;16.33;13.33;;;;;32.13;23.13;102009.84;4996739;28;45397;-83
2022/04/15 06:54:33;;;;;;;;;13.00;12.33;;;;;32.24;23.17;102018.44;4978533;28;47728;-84
2022/04/15 06:56:58;;;;;;;;;16.00;14.00;;;;;32.23;22.96;102037.72;4999565;28;45481;-83
2022/04/15 06:59:27;;;;;;;;;18.00;16.00;;;;;32.07;23.38;101994.56;4979060;28;45488;-83
2022/04/15 07:01:55;;;;;;;;;15.00;14.67;;;;;32.21;23.01;102020.44;4980958;28;45392;-83
2022/04/15 07:04:21;;;;;;;;;15.33;12.33;;;;;32.13;23.15;102004.34;5001225;28;46365;-82
2022/04/15 07:06:46;;;;;;;;;13.00;13.00;;;;;32.30;23.05;102047.41;4985693;28;45668;-82
2022/04/15 07:09:12;;;;;;;;;11.67;11.67;;;;;32.03;23.44;101981.97;4999671;28;45394;-83
2022/04/15 07:11:37;;;;;;;;;15.33;14.00;;;;;32.22;23.57;102023.13;4999450;28;45552;-84
2022/04/15 07:14:05;;;;;;;;;14.67;14.67;;;;;32.19;23.40;101998.56;4996384;28;46376;-85
2022/04/15 07:16:30;;;;;;;;;17.00;15.33;;;;;32.37;22.95;102020.53;4984381;28;45812;-85
2022/04/15 07:18:56;;;;;;;;;16.67;15.00;;;;;32.66;22.99;102068.44;4980113;28;45572;-85
2022/04/15 07:21:22;;;;;;;;;17.00;16.33;;;;;32.60;23.06;102064.16;4997551;28;45384;-83
2022/04/15 07:23:48;;;;;;;;;19.67;17.67;;;;;32.65;23.18;102044.66;4996117;28;46127;-82
2022/04/15 07:26:13;;;;;;;;;18.00;17.00;;;;;32.66;23.13;102028.09;5009536;28;45417;-83
2022/04/15 07:28:39;;;;;;;;;16.67;16.67;;;;;32.74;23.16;102046.94;5025985;28;45312;-83
2022/04/15 07:31:05;;;;;;;;;15.67;14.67;;;;;32.92;23.05;102053.28;5018625;28;45400;-83
2022/04/15 07:33:30;;;;;;;;;17.00;15.00;;;;;32.81;22.58;102040.16;5022250;28;47028;-83
2022/04/15 07:35:57;;;;;;;;;16.00;14.00;;;;;32.61;22.71;102004.59;5022258;28;45410;-83
2022/04/15 07:38:23;;;;;;;;;15.67;14.00;;;;;33.06;22.56;102074.50;5017841;28;45435;-82
2022/04/15 07:40:48;;;;;;;;;16.33;15.00;;;;;33.05;23.03;102085.59;5026182;28;45503;-83
2022/04/15 07:43:14;;;;;;;;;16.67;16.67;;;;;32.80;23.09;102032.88;5019031;28;48178;-82
2022/04/15 07:45:40;;;;;;;;;14.00;13.33;;;;;32.63;22.45;102008.13;5015019;28;45540;-83
2022/04/15 07:48:06;;;;;;;;;17.33;16.33;;;;;32.57;22.72;102028.56;5018638;28;45534;-83
2022/04/15 07:50:31;;;;;;;;;16.33;14.00;;;;;32.73;22.84;102039.66;5021214;28;45508;-83
2022/04/15 07:52:58;;;;;;;;;13.67;12.33;;;;;32.65;22.58;102003.44;5020607;28;46279;-83
2022/04/15 07:55:24;;;;;;;;;17.00;12.33;;;;;32.77;22.39;102043.13;5020516;28;45486;-83
2022/04/15 07:57:50;;;;;;;;;14.67;13.00;;;;;32.66;22.72;102018.97;5018468;28;45386;-83
2022/04/15 08:00:16;;;;;;;;;14.00;13.00;;;;;32.81;22.04;102062.13;5014451;28;45175;-86
2022/04/15 08:02:41;;;;;;;;;17.00;13.33;;;;;33.03;22.37;102085.69;5022085;28;47001;-86
2022/04/15 08:05:07;;;;;;;;;15.00;15.00;;;;;32.70;21.93;102006.88;5022978;28;45617;-86
2022/04/15 08:07:33;;;;;;;;;9.33;9.33;;;;;32.81;22.44;102034.66;5015680;28;45383;-85
2022/04/15 08:09:58;;;;;;;;;17.67;15.00;;;;;32.60;22.41;101992.72;5020300;28;46573;-84
2022/04/15 08:12:23;;;;;;;;;15.00;15.00;;;;;32.74;22.18;102033.22;5015101;28;47545;-85
2022/04/15 08:14:49;;;;;;;;;14.00;14.00;;;;;32.92;22.36;102058.78;5012892;28;45735;-85
2022/04/15 08:17:15;;;;;;;;;14.00;13.67;;;;;32.81;22.43;102047.47;5020173;28;45325;-86
2022/04/15 08:19:41;;;;;;;;;13.00;13.00;;;;;32.63;22.43;102025.50;5015768;28;45478;-86
2022/04/15 08:22:09;;;;;;;;;15.00;12.33;;;;;32.64;22.46;102056.59;5016780;28;45428;-85
2022/04/15 08:24:38;;;;;;;;;17.67;15.00;;;;;32.83;22.25;102070.28;5015070;28;45392;-86
2022/04/15 08:27:04;;;;;;;;;14.33;14.33;;;;;32.64;22.75;102041.03;4995579;28;45971;-86
2022/04/15 08:29:30;;;;;;;;;16.00;15.00;;;;;32.85;22.44;102038.09;4976452;28;45533;-86
2022/04/15 08:31:55;;;;;;;;;11.67;11.67;;;;;32.77;22.07;102016.56;5005972;28;48290;-84
2022/04/15 08:34:20;;;;;;;;;9.33;9.00;;;;;33.20;21.71;102094.88;4996321;28;45588;-86
2022/04/15 08:36:46;;;;;;;;;10.33;9.00;;;;;32.75;21.80;102032.22;4977786;28;45412;-86
2022/04/15 08:39:11;;;;;;;;;13.33;13.00;;;;;32.45;22.14;101988.06;4976086;28;45502;-85
2022/04/15 08:41:43;;;;;;;;;11.33;10.00;;;;;33.22;22.05;102093.81;4976179;28;48105;-87
2022/04/15 08:44:09;;;;;;;;;9.00;9.00;;;;;33.11;22.30;102044.91;4974572;28;45551;-87
2022/04/15 08:46:35;;;;;;;;;9.33;8.67;;;;;33.13;21.58;102047.56;5000137;28;45504;-86
2022/04/15 08:49:02;;;;;;;;;11.67;9.33;;;;;33.41;22.20;102099.19;4995058;28;46356;-82
2022/04/15 08:51:29;;;;;;;;;7.00;7.00;;;;;33.47;22.08;102101.59;4993523;28;45361;-86
2022/04/15 08:53:54;;;;;;;;;8.33;8.33;;;;;33.26;22.04;102043.16;4976214;28;45837;-86
2022/04/15 08:56:22;;;;;;;;;7.00;7.00;;;;;33.01;21.75;102029.91;4984508;28;45343;-87
2022/04/15 08:58:48;;;;;;;;;8.00;5.33;;;;;33.13;22.05;102042.94;4981130;28;46491;-86
2022/04/15 09:01:14;;;;;;;;;7.00;6.00;;;;;32.92;21.75;102000.16;4975611;28;46606;-85
2022/04/15 09:03:40;;;;;;;;;7.00;5.00;;;;;33.10;21.76;102043.13;4996567;28;45543;-86
2022/04/15 09:06:18;;;;;;;;;8.33;6.33;;;;;33.07;22.21;102032.31;4996852;28;45508;-85
2022/04/15 09:09:02;;;;;;;;;6.00;3.67;;;;;33.39;22.04;102092.91;4995015;28;45380;-86
2022/04/15 09:11:36;;;;;;;;;8.33;7.33;;;;;33.20;21.95;102089.38;4991502;28;48484;-85
2022/04/15 09:14:07;;;;;;;;;10.67;8.67;;;;;32.87;22.19;102032.50;4995328;28;45551;-86
2022/04/15 09:16:44;;;;;;;;;7.67;6.67;;;;;32.86;22.11;102028.88;4994167;28;45674;-86
2022/04/15 09:19:11;;;;;;;;;8.33;7.00;;;;;33.02;21.77;102025.28;4977738;28;46165;-86
2022/04/15 09:21:38;;;;;;;;;6.00;6.00;;;;;32.92;21.95;102045.03;4977638;28;47423;-86
2022/04/15 09:24:04;;;;;;;;;5.67;5.67;;;;;33.28;21.59;102112.75;4976228;28;46016;-84
2022/04/15 09:26:29;;;;;;;;;9.00;8.00;;;;;32.77;21.94;101994.56;4993823;28;45441;-84
2022/04/15 09:28:55;;;;;;;;;7.00;7.00;;;;;33.65;21.86;102098.75;4976520;28;45440;-85
2022/04/15 09:31:22;;;;;;;;;7.67;7.67;;;;;33.62;21.54;102075.06;4993145;28;45819;-84
2022/04/15 09:33:56;;;;;;;;;10.00;8.67;;;;;33.93;21.66;102088.94;4993542;28;45419;-81
2022/04/15 09:36:30;;;;;;;;;6.67;6.67;;;;;33.56;21.60;102005.72;4977248;28;45477;-81
2022/04/15 09:38:57;;;;;;;;;10.00;8.67;;;;;33.84;21.20;102043.56;4994170;28;45453;-81
2022/04/15 09:41:25;;;;;;;;;11.00;10.67;;;;;33.70;21.36;102033.34;4975260;28;48587;-84
2022/04/15 09:43:54;;;;;;;;;9.00;9.00;;;;;34.04;21.37;102086.44;4978296;28;45586;-84
2022/04/15 09:46:21;;;;;;;;;9.67;9.67;;;;;33.93;21.42;102064.16;4977953;28;45417;-83
2022/04/15 09:49:07;;;;;;;;;8.33;8.00;;;;;34.13;21.71;102101.50;4976648;28;45375;-80
2022/04/15 09:51:45;;;;;;;;;12.00;12.00;;;;;34.22;21.36;102105.56;4976777;28;46919;-82
2022/04/15 09:54:25;;;;;;;;;9.67;8.67;;;;;33.94;21.43;102071.41;4976267;28;45709;-82
2022/04/15 09:56:53;;;;;;;;;9.33;7.67;;;;;34.30;21.35;102103.28;4994909;28;45365;-80
2022/04/15 09:59:24;;;;;;;;;10.00;8.33;;;;;33.75;21.30;102039.44;4975527;28;45826;-83
2022/04/15 10:02:03;;;;;;;;;9.67;8.00;;;;;33.84;21.04;102071.09;4998696;28;46370;-82
2022/04/15 10:04:29;;;;;;;;;8.67;8.67;;;;;33.86;21.23;102055.38;4996400;28;45508;-85
2022/04/15 10:06:55;;;;;;;;;6.33;6.33;;;;;34.02;21.41;102085.63;5016326;28;45614;-87
2022/04/15 10:09:21;;;;;;;;;6.00;6.00;;;;;33.91;20.94;102041.31;4991885;28;45399;-87
2022/04/15 10:11:48;;;;;;;;;6.00;6.00;;;;;34.34;20.51;102085.59;4979150;28;48353;-86
2022/04/15 10:14:15;;;;;;;;;4.00;4.00;;;;;33.83;20.37;102070.19;4996864;28;45621;-87
2022/04/15 10:16:42;;;;;;;;;5.33;3.00;;;;;33.62;20.30;102057.66;4979213;28;45795;-86
2022/04/15 10:19:09;;;;;;;;;3.00;3.00;;;;;33.88;20.09;102052.53;4978653;28;45629;-87
2022/04/15 10:21:37;;;;;;;;;4.00;2.00;;;;;34.29;20.18;102084.97;4990809;28;46178;-87
2022/04/15 10:24:04;;;;;;;;;4.00;4.00;;;;;34.11;19.93;102068.56;4999960;28;45449;-87
2022/04/15 10:26:50;;;;;;;;;0.33;0.33;;;;;34.13;20.04;102082.22;4994794;28;45334;-87
2022/04/15 10:29:15;;;;;;;;;2.00;2.00;;;;;34.26;19.95;102065.84;4996865;28;45490;-86
2022/04/15 10:31:48;;;;;;;;;4.00;4.00;;;;;34.25;19.40;102075.06;4985623;28;47614;-88
2022/04/15 10:34:19;;;;;;;;;2.67;2.67;;;;;34.31;19.68;102072.00;4978919;28;45533;-86
2022/04/15 10:36:46;;;;;;;;;4.00;3.33;;;;;34.50;19.64;102066.22;4999461;28;46251;-82
2022/04/15 10:39:14;;;;;;;;;3.33;3.33;;;;;34.59;19.77;102070.31;4996189;28;45596;-83
2022/04/15 10:41:43;;;;;;;;;3.00;2.00;;;;;34.53;19.38;102075.22;4975251;28;47857;-86
2022/04/15 10:44:24;;;;;;;;;3.00;3.00;;;;;34.23;19.38;102027.47;4996652;28;45388;-85
2022/04/15 10:46:49;;;;;;;;;3.67;1.67;;;;;34.50;19.22;102030.41;4978343;28;45509;-81
2022/04/15 10:49:23;;;;;;;;;3.33;2.33;;;;;34.76;19.45;102041.69;4995239;28;45235;-81
2022/04/15 10:51:57;;;;;;;;;3.67;2.00;;;;;34.89;19.25;102050.09;4995641;28;45443;-83
2022/04/15 10:54:35;;;;;;;;;3.67;3.00;;;;;34.79;18.95;102058.91;4995362;28;45381;-82
2022/04/15 10:57:09;;;;;;;;;2.00;2.00;;;;;34.84;19.02;102077.97;4997097;28;45326;-84
2022/04/15 11:02:34;;;;;;;;;2.67;2.67;;;;;34.70;18.67;102057.63;4994340;28;45842;-85
2022/04/15 11:05:00;;;;;;;;;3.00;3.00;;;;;34.74;19.09;102050.06;4996917;28;45495;-84
2022/04/15 11:07:29;;;;;;;;;2.33;2.33;;;;;34.83;18.65;102057.75;4995497;28;45423;-86
2022/04/15 11:09:55;;;;;;;;;2.25;2.25;;;;;34.66;19.04;102022.97;4977959;28;45551;-83
2022/04/15 11:12:36;;;;;;;;;3.00;2.67;;;;;34.93;18.87;102068.22;4977093;28;47581;-82
2022/04/15 11:15:05;;;;;;;;;2.33;2.33;;;;;34.86;18.94;102049.28;4990785;28;45587;-82
2022/04/15 11:17:44;;;;;;;;;3.00;2.00;;;;;34.66;18.95;102011.06;4985023;28;45580;-81
2022/04/15 11:20:10;;;;;;;;;1.67;1.67;;;;;35.00;19.18;102042.00;4981540;28;45479;-82
2022/04/15 11:22:41;;;;;;;;;3.67;2.67;;;;;35.04;18.85;102019.63;5001288;28;45551;-83